sensor_id;sensor_type;location;lat;lon;timestamp;temperature;humidity
21171;DHT22;10743;52.160;20.910;2023-04-03T00:01:20;20.40;29.00
21171;DHT22;10743;52.160;20.910;2023-04-03T00:03:47;20.40;29.00
21171;DHT22;10743;52.160;20.910;2023-04-03T00:06:14;20.30;29.10
21171;DHT22;10743;52.160;20.910;2023-04-03T00:08:41;20.30;29.20
21171;DHT22;10743;52.160;20.910;2023-04-03T00:11:09;20.30;28.90
21171;DHT22;10743;52.160;20.910;2023-04-03T00:13:37;20.20;29.00
21171;DHT22;10743;52.160;20.910;2023-04-03T00:16:06;20.10;29.20
21171;DHT22;10743;52.160;20.910;2023-04-03T00:18:33;19.90;29.40
21171;DHT22;10743;52.160;20.910;2023-04-03T00:21:02;19.80;29.40
21171;DHT22;10743;52.160;20.910;2023-04-03T00:23:29;19.70;29.20
21171;DHT22;10743;52.160;20.910;2023-04-03T00:25:57;19.50;29.40
21171;DHT22;10743;52.160;20.910;2023-04-03T00:28:24;19.40;29.60
21171;DHT22;10743;52.160;20.910;2023-04-03T00:30:51;19.30;29.60
21171;DHT22;10743;52.160;20.910;2023-04-03T00:33:18;19.10;29.50
21171;DHT22;10743;52.160;20.910;2023-04-03T00:35:48;18.90;29.60
21171;DHT22;10743;52.160;20.910;2023-04-03T00:38:16;18.80;29.90
21171;DHT22;10743;52.160;20.910;2023-04-03T00:40:45;18.60;30.00
21171;DHT22;10743;52.160;20.910;2023-04-03T00:43:18;18.50;30.20
21171;DHT22;10743;52.160;20.910;2023-04-03T00:45:50;18.40;30.50
21171;DHT22;10743;52.160;20.910;2023-04-03T00:51:10;18.20;30.70
21171;DHT22;10743;52.160;20.910;2023-04-03T00:53:44;18.20;30.90
21171;DHT22;10743;52.160;20.910;2023-04-03T00:56:17;18.20;30.80
21171;DHT22;10743;52.160;20.910;2023-04-03T00:58:53;18.20;30.70
21171;DHT22;10743;52.160;20.910;2023-04-03T01:01:25;18.20;30.60
21171;DHT22;10743;52.160;20.910;2023-04-03T01:03:53;18.20;30.60
21171;DHT22;10743;52.160;20.910;2023-04-03T01:06:28;18.20;30.80
21171;DHT22;10743;52.160;20.910;2023-04-03T01:09:04;18.10;30.60
21171;DHT22;10743;52.160;20.910;2023-04-03T01:11:32;18.10;30.70
21171;DHT22;10743;52.160;20.910;2023-04-03T01:14:01;18.00;30.60
21171;DHT22;10743;52.160;20.910;2023-04-03T01:16:29;18.00;30.40
21171;DHT22;10743;52.160;20.910;2023-04-03T01:19:00;17.90;30.30
21171;DHT22;10743;52.160;20.910;2023-04-03T01:24:32;17.90;30.20
21171;DHT22;10743;52.160;20.910;2023-04-03T01:27:09;17.90;30.30
21171;DHT22;10743;52.160;20.910;2023-04-03T01:29:37;17.80;30.60
21171;DHT22;10743;52.160;20.910;2023-04-03T01:32:04;17.80;30.60
21171;DHT22;10743;52.160;20.910;2023-04-03T01:34:32;17.70;30.40
21171;DHT22;10743;52.160;20.910;2023-04-03T01:37:00;17.70;30.40
21171;DHT22;10743;52.160;20.910;2023-04-03T01:39:27;17.60;30.50
21171;DHT22;10743;52.160;20.910;2023-04-03T01:41:54;17.60;30.70
21171;DHT22;10743;52.160;20.910;2023-04-03T01:44:29;17.60;31.00
21171;DHT22;10743;52.160;20.910;2023-04-03T01:46:56;17.50;30.90
21171;DHT22;10743;52.160;20.910;2023-04-03T01:49:26;17.50;31.00
21171;DHT22;10743;52.160;20.910;2023-04-03T01:51:55;17.50;30.90
21171;DHT22;10743;52.160;20.910;2023-04-03T01:54:22;17.50;30.80
21171;DHT22;10743;52.160;20.910;2023-04-03T01:56:49;17.40;30.80
21171;DHT22;10743;52.160;20.910;2023-04-03T01:59:17;17.40;30.70
21171;DHT22;10743;52.160;20.910;2023-04-03T02:01:45;17.40;30.70
21171;DHT22;10743;52.160;20.910;2023-04-03T02:04:13;17.40;30.70
21171;DHT22;10743;52.160;20.910;2023-04-03T02:06:40;17.30;30.80
21171;DHT22;10743;52.160;20.910;2023-04-03T02:09:07;17.40;30.70
21171;DHT22;10743;52.160;20.910;2023-04-03T02:11:34;17.40;30.70
21171;DHT22;10743;52.160;20.910;2023-04-03T02:14:01;17.40;30.70
21171;DHT22;10743;52.160;20.910;2023-04-03T02:16:30;17.30;30.70
21171;DHT22;10743;52.160;20.910;2023-04-03T02:18:58;17.40;30.50
21171;DHT22;10743;52.160;20.910;2023-04-03T02:21:25;17.40;30.50
21171;DHT22;10743;52.160;20.910;2023-04-03T02:23:53;17.40;30.40
21171;DHT22;10743;52.160;20.910;2023-04-03T02:26:20;17.40;30.30
21171;DHT22;10743;52.160;20.910;2023-04-03T02:28:47;17.30;30.20
21171;DHT22;10743;52.160;20.910;2023-04-03T02:31:14;17.30;30.50
21171;DHT22;10743;52.160;20.910;2023-04-03T02:33:44;17.30;30.40
21171;DHT22;10743;52.160;20.910;2023-04-03T02:36:13;17.30;30.40
21171;DHT22;10743;52.160;20.910;2023-04-03T02:38:43;17.20;30.50
21171;DHT22;10743;52.160;20.910;2023-04-03T02:41:12;17.30;30.50
21171;DHT22;10743;52.160;20.910;2023-04-03T02:43:40;17.30;30.60
21171;DHT22;10743;52.160;20.910;2023-04-03T02:46:07;17.30;30.70
21171;DHT22;10743;52.160;20.910;2023-04-03T02:48:35;17.20;30.70
21171;DHT22;10743;52.160;20.910;2023-04-03T02:51:02;17.20;30.60
21171;DHT22;10743;52.160;20.910;2023-04-03T02:53:29;17.20;30.50
21171;DHT22;10743;52.160;20.910;2023-04-03T02:56:00;17.20;30.40
21171;DHT22;10743;52.160;20.910;2023-04-03T02:58:27;17.10;30.60
21171;DHT22;10743;52.160;20.910;2023-04-03T03:00:57;17.10;30.60
21171;DHT22;10743;52.160;20.910;2023-04-03T03:03:24;17.10;30.60
21171;DHT22;10743;52.160;20.910;2023-04-03T03:06:01;17.10;30.80
21171;DHT22;10743;52.160;20.910;2023-04-03T03:08:33;17.10;30.80
21171;DHT22;10743;52.160;20.910;2023-04-03T03:11:00;17.10;30.70
21171;DHT22;10743;52.160;20.910;2023-04-03T03:13:28;17.10;30.80
21171;DHT22;10743;52.160;20.910;2023-04-03T03:15:56;17.10;30.80
21171;DHT22;10743;52.160;20.910;2023-04-03T03:18:23;17.10;30.70
21171;DHT22;10743;52.160;20.910;2023-04-03T03:20:55;17.00;30.90
21171;DHT22;10743;52.160;20.910;2023-04-03T03:23:24;17.00;30.70
21171;DHT22;10743;52.160;20.910;2023-04-03T03:26:00;17.00;30.50
21171;DHT22;10743;52.160;20.910;2023-04-03T03:28:29;17.00;30.50
21171;DHT22;10743;52.160;20.910;2023-04-03T03:30:58;16.90;30.50
21171;DHT22;10743;52.160;20.910;2023-04-03T03:33:26;16.90;30.70
21171;DHT22;10743;52.160;20.910;2023-04-03T03:35:53;16.90;30.50
21171;DHT22;10743;52.160;20.910;2023-04-03T03:38:21;16.80;30.60
21171;DHT22;10743;52.160;20.910;2023-04-03T03:40:50;16.80;30.70
21171;DHT22;10743;52.160;20.910;2023-04-03T03:43:19;16.80;30.50
21171;DHT22;10743;52.160;20.910;2023-04-03T03:45:52;16.80;30.60
21171;DHT22;10743;52.160;20.910;2023-04-03T03:48:21;16.80;30.60
21171;DHT22;10743;52.160;20.910;2023-04-03T03:50:49;16.80;30.40
21171;DHT22;10743;52.160;20.910;2023-04-03T03:53:18;16.80;30.50
21171;DHT22;10743;52.160;20.910;2023-04-03T03:55:48;16.70;30.60
21171;DHT22;10743;52.160;20.910;2023-04-03T03:58:16;16.70;30.70
21171;DHT22;10743;52.160;20.910;2023-04-03T04:00:43;16.70;31.50
21171;DHT22;10743;52.160;20.910;2023-04-03T04:03:10;16.70;30.80
21171;DHT22;10743;52.160;20.910;2023-04-03T04:05:38;16.70;30.80
21171;DHT22;10743;52.160;20.910;2023-04-03T04:08:06;16.60;30.80
21171;DHT22;10743;52.160;20.910;2023-04-03T04:10:33;16.60;30.80
21171;DHT22;10743;52.160;20.910;2023-04-03T04:13:01;16.60;31.00
21171;DHT22;10743;52.160;20.910;2023-04-03T04:15:28;16.50;30.90
21171;DHT22;10743;52.160;20.910;2023-04-03T04:17:56;16.50;31.20
21171;DHT22;10743;52.160;20.910;2023-04-03T04:20:24;16.40;30.90
21171;DHT22;10743;52.160;20.910;2023-04-03T04:22:52;16.40;31.10
21171;DHT22;10743;52.160;20.910;2023-04-03T04:25:21;16.40;31.30
21171;DHT22;10743;52.160;20.910;2023-04-03T04:27:48;16.30;31.30
21171;DHT22;10743;52.160;20.910;2023-04-03T04:30:16;16.30;31.50
21171;DHT22;10743;52.160;20.910;2023-04-03T04:32:46;16.20;31.60
21171;DHT22;10743;52.160;20.910;2023-04-03T04:35:13;16.10;31.50
21171;DHT22;10743;52.160;20.910;2023-04-03T04:37:45;16.10;31.70
21171;DHT22;10743;52.160;20.910;2023-04-03T04:40:13;16.10;31.70
21171;DHT22;10743;52.160;20.910;2023-04-03T04:42:40;16.10;31.90
21171;DHT22;10743;52.160;20.910;2023-04-03T04:45:07;16.10;31.80
21171;DHT22;10743;52.160;20.910;2023-04-03T04:47:36;16.20;31.90
21171;DHT22;10743;52.160;20.910;2023-04-03T04:50:04;16.10;31.80
21171;DHT22;10743;52.160;20.910;2023-04-03T04:52:32;16.20;31.80
21171;DHT22;10743;52.160;20.910;2023-04-03T04:54:59;16.20;31.90
21171;DHT22;10743;52.160;20.910;2023-04-03T04:57:27;16.20;32.00
21171;DHT22;10743;52.160;20.910;2023-04-03T04:59:56;16.20;31.90
21171;DHT22;10743;52.160;20.910;2023-04-03T05:02:23;16.20;31.30
21171;DHT22;10743;52.160;20.910;2023-04-03T05:04:51;16.20;31.50
21171;DHT22;10743;52.160;20.910;2023-04-03T05:07:23;16.30;31.60
21171;DHT22;10743;52.160;20.910;2023-04-03T05:09:51;16.30;31.50
21171;DHT22;10743;52.160;20.910;2023-04-03T05:12:18;16.40;31.40
21171;DHT22;10743;52.160;20.910;2023-04-03T05:14:52;16.40;31.40
21171;DHT22;10743;52.160;20.910;2023-04-03T05:17:19;16.40;31.20
21171;DHT22;10743;52.160;20.910;2023-04-03T05:19:50;16.40;31.20
21171;DHT22;10743;52.160;20.910;2023-04-03T05:22:20;16.50;31.10
21171;DHT22;10743;52.160;20.910;2023-04-03T05:24:47;16.50;31.00
21171;DHT22;10743;52.160;20.910;2023-04-03T05:27:15;16.50;30.90
21171;DHT22;10743;52.160;20.910;2023-04-03T05:29:47;16.40;31.80
21171;DHT22;10743;52.160;20.910;2023-04-03T05:32:19;16.40;31.10
21171;DHT22;10743;52.160;20.910;2023-04-03T05:34:52;16.40;31.00
21171;DHT22;10743;52.160;20.910;2023-04-03T05:37:19;16.40;31.00
21171;DHT22;10743;52.160;20.910;2023-04-03T05:39:48;16.40;31.00
21171;DHT22;10743;52.160;20.910;2023-04-03T05:42:15;16.40;31.00
21171;DHT22;10743;52.160;20.910;2023-04-03T05:44:44;16.40;31.40
21171;DHT22;10743;52.160;20.910;2023-04-03T05:47:13;16.40;31.20
21171;DHT22;10743;52.160;20.910;2023-04-03T05:49:40;16.30;31.00
21171;DHT22;10743;52.160;20.910;2023-04-03T05:52:30;16.30;30.80
21171;DHT22;10743;52.160;20.910;2023-04-03T05:55:00;16.30;30.70
21171;DHT22;10743;52.160;20.910;2023-04-03T05:57:30;16.30;30.90
21171;DHT22;10743;52.160;20.910;2023-04-03T05:59:57;16.30;30.70
21171;DHT22;10743;52.160;20.910;2023-04-03T06:02:25;16.30;30.90
21171;DHT22;10743;52.160;20.910;2023-04-03T06:04:53;16.30;31.10
21171;DHT22;10743;52.160;20.910;2023-04-03T06:07:23;16.20;31.00
21171;DHT22;10743;52.160;20.910;2023-04-03T06:09:55;16.20;31.00
21171;DHT22;10743;52.160;20.910;2023-04-03T06:12:23;16.20;31.00
21171;DHT22;10743;52.160;20.910;2023-04-03T06:14:50;16.20;31.10
21171;DHT22;10743;52.160;20.910;2023-04-03T06:17:18;16.20;31.20
21171;DHT22;10743;52.160;20.910;2023-04-03T06:19:45;16.20;31.40
21171;DHT22;10743;52.160;20.910;2023-04-03T06:22:14;16.20;31.40
21171;DHT22;10743;52.160;20.910;2023-04-03T06:24:41;16.20;31.50
21171;DHT22;10743;52.160;20.910;2023-04-03T06:27:09;16.20;31.10
21171;DHT22;10743;52.160;20.910;2023-04-03T06:29:37;16.20;31.00
21171;DHT22;10743;52.160;20.910;2023-04-03T06:32:05;16.30;31.00
21171;DHT22;10743;52.160;20.910;2023-04-03T06:34:32;16.30;31.10
21171;DHT22;10743;52.160;20.910;2023-04-03T06:36:59;16.40;30.90
21171;DHT22;10743;52.160;20.910;2023-04-03T06:39:26;16.40;31.00
21171;DHT22;10743;52.160;20.910;2023-04-03T06:41:53;16.40;30.90
21171;DHT22;10743;52.160;20.910;2023-04-03T06:44:36;16.50;31.00
21171;DHT22;10743;52.160;20.910;2023-04-03T06:47:04;16.50;31.00
21171;DHT22;10743;52.160;20.910;2023-04-03T06:49:31;16.60;31.00
21171;DHT22;10743;52.160;20.910;2023-04-03T06:51:58;16.70;30.70
21171;DHT22;10743;52.160;20.910;2023-04-03T06:54:28;16.70;30.50
21171;DHT22;10743;52.160;20.910;2023-04-03T06:56:55;16.80;30.50
21171;DHT22;10743;52.160;20.910;2023-04-03T06:59:22;16.80;30.50
21171;DHT22;10743;52.160;20.910;2023-04-03T07:01:49;16.80;30.60
21171;DHT22;10743;52.160;20.910;2023-04-03T07:04:17;16.80;30.80
21171;DHT22;10743;52.160;20.910;2023-04-03T07:06:45;16.80;30.60
21171;DHT22;10743;52.160;20.910;2023-04-03T07:09:14;16.80;30.50
21171;DHT22;10743;52.160;20.910;2023-04-03T07:11:41;16.80;30.50
21171;DHT22;10743;52.160;20.910;2023-04-03T07:14:08;16.90;30.50
21171;DHT22;10743;52.160;20.910;2023-04-03T07:16:36;16.90;30.10
21171;DHT22;10743;52.160;20.910;2023-04-03T07:19:06;17.00;30.30
21171;DHT22;10743;52.160;20.910;2023-04-03T07:21:35;17.00;30.40
21171;DHT22;10743;52.160;20.910;2023-04-03T07:24:02;17.00;30.60
21171;DHT22;10743;52.160;20.910;2023-04-03T07:26:29;17.10;30.10
21171;DHT22;10743;52.160;20.910;2023-04-03T07:28:57;17.20;30.00
21171;DHT22;10743;52.160;20.910;2023-04-03T07:31:24;17.30;29.90
21171;DHT22;10743;52.160;20.910;2023-04-03T07:33:51;17.30;29.80
21171;DHT22;10743;52.160;20.910;2023-04-03T07:36:21;17.40;29.80
21171;DHT22;10743;52.160;20.910;2023-04-03T07:38:49;17.40;30.20
21171;DHT22;10743;52.160;20.910;2023-04-03T07:41:18;17.50;29.70
21171;DHT22;10743;52.160;20.910;2023-04-03T07:43:49;17.50;29.70
21171;DHT22;10743;52.160;20.910;2023-04-03T07:46:16;17.60;29.70
21171;DHT22;10743;52.160;20.910;2023-04-03T07:48:44;17.60;29.60
21171;DHT22;10743;52.160;20.910;2023-04-03T07:51:11;17.70;29.60
21171;DHT22;10743;52.160;20.910;2023-04-03T07:53:39;17.70;29.50
21171;DHT22;10743;52.160;20.910;2023-04-03T07:56:07;17.70;30.10
21171;DHT22;10743;52.160;20.910;2023-04-03T07:58:34;17.80;29.50
21171;DHT22;10743;52.160;20.910;2023-04-03T08:01:01;17.80;29.20
21171;DHT22;10743;52.160;20.910;2023-04-03T08:03:28;17.90;28.90
21171;DHT22;10743;52.160;20.910;2023-04-03T08:06:03;18.00;28.80
21171;DHT22;10743;52.160;20.910;2023-04-03T08:08:33;18.00;28.80
21171;DHT22;10743;52.160;20.910;2023-04-03T08:11:01;18.10;28.70
21171;DHT22;10743;52.160;20.910;2023-04-03T08:13:29;18.10;28.50
21171;DHT22;10743;52.160;20.910;2023-04-03T08:15:57;18.20;28.50
21171;DHT22;10743;52.160;20.910;2023-04-03T08:18:25;18.20;28.40
21171;DHT22;10743;52.160;20.910;2023-04-03T08:20:53;18.20;28.50
21171;DHT22;10743;52.160;20.910;2023-04-03T08:23:20;18.30;28.10
21171;DHT22;10743;52.160;20.910;2023-04-03T08:25:47;18.30;27.80
21171;DHT22;10743;52.160;20.910;2023-04-03T08:28:14;18.30;28.00
21171;DHT22;10743;52.160;20.910;2023-04-03T08:30:42;18.40;28.00
21171;DHT22;10743;52.160;20.910;2023-04-03T08:33:10;18.40;27.50
21171;DHT22;10743;52.160;20.910;2023-04-03T08:35:41;18.50;27.20
21171;DHT22;10743;52.160;20.910;2023-04-03T08:38:09;18.60;27.00
21171;DHT22;10743;52.160;20.910;2023-04-03T08:40:37;18.60;26.90
21171;DHT22;10743;52.160;20.910;2023-04-03T08:46:13;18.60;27.10
21171;DHT22;10743;52.160;20.910;2023-04-03T08:48:43;18.60;27.30
21171;DHT22;10743;52.160;20.910;2023-04-03T08:51:16;18.60;27.10
21171;DHT22;10743;52.160;20.910;2023-04-03T08:54:05;18.70;27.10
21171;DHT22;10743;52.160;20.910;2023-04-03T08:56:36;18.70;26.70
21171;DHT22;10743;52.160;20.910;2023-04-03T08:59:12;18.80;26.60
21171;DHT22;10743;52.160;20.910;2023-04-03T09:01:41;18.90;26.50
21171;DHT22;10743;52.160;20.910;2023-04-03T09:04:14;18.90;26.70
21171;DHT22;10743;52.160;20.910;2023-04-03T09:06:49;18.90;26.60
21171;DHT22;10743;52.160;20.910;2023-04-03T09:20:20;19.00;26.50
21171;DHT22;10743;52.160;20.910;2023-04-03T09:22:51;19.00;26.20
21171;DHT22;10743;52.160;20.910;2023-04-03T09:25:23;19.10;26.30
21171;DHT22;10743;52.160;20.910;2023-04-03T09:27:52;19.10;26.50
21171;DHT22;10743;52.160;20.910;2023-04-03T09:30:23;19.10;26.20
21171;DHT22;10743;52.160;20.910;2023-04-03T09:32:53;19.10;26.20
21171;DHT22;10743;52.160;20.910;2023-04-03T09:35:31;19.10;26.20
21171;DHT22;10743;52.160;20.910;2023-04-03T09:40:41;19.20;26.20
21171;DHT22;10743;52.160;20.910;2023-04-03T09:43:20;19.30;26.10
21171;DHT22;10743;52.160;20.910;2023-04-03T09:45:56;19.30;25.80
21171;DHT22;10743;52.160;20.910;2023-04-03T09:48:57;19.40;25.80
21171;DHT22;10743;52.160;20.910;2023-04-03T09:51:35;19.60;25.70
21171;DHT22;10743;52.160;20.910;2023-04-03T09:54:32;19.70;25.60
21171;DHT22;10743;52.160;20.910;2023-04-03T09:57:12;19.80;25.30
21171;DHT22;10743;52.160;20.910;2023-04-03T10:00:00;19.90;25.30
21171;DHT22;10743;52.160;20.910;2023-04-03T10:02:41;20.00;25.40
21171;DHT22;10743;52.160;20.910;2023-04-03T10:05:30;20.00;25.80
21171;DHT22;10743;52.160;20.910;2023-04-03T10:10:45;20.20;26.00
21171;DHT22;10743;52.160;20.910;2023-04-03T10:13:19;20.40;26.00
21171;DHT22;10743;52.160;20.910;2023-04-03T10:15:56;20.40;25.60
21171;DHT22;10743;52.160;20.910;2023-04-03T10:18:47;20.60;25.30
21171;DHT22;10743;52.160;20.910;2023-04-03T10:21:54;20.70;25.10
21171;DHT22;10743;52.160;20.910;2023-04-03T10:30:42;20.90;24.40
21171;DHT22;10743;52.160;20.910;2023-04-03T10:36:33;20.90;25.00
21171;DHT22;10743;52.160;20.910;2023-04-03T10:39:36;21.00;24.70
21171;DHT22;10743;52.160;20.910;2023-04-03T10:45:20;21.00;24.50
21171;DHT22;10743;52.160;20.910;2023-04-03T10:48:15;21.00;24.50
21171;DHT22;10743;52.160;20.910;2023-04-03T10:56:56;21.20;24.60
21171;DHT22;10743;52.160;20.910;2023-04-03T10:59:46;21.30;24.30
21171;DHT22;10743;52.160;20.910;2023-04-03T11:05:45;21.50;24.20
21171;DHT22;10743;52.160;20.910;2023-04-03T11:10:57;21.70;24.30
21171;DHT22;10743;52.160;20.910;2023-04-03T11:13:52;21.80;24.10
21171;DHT22;10743;52.160;20.910;2023-04-03T11:16:28;21.90;24.10
21171;DHT22;10743;52.160;20.910;2023-04-03T11:19:18;22.00;23.60
21171;DHT22;10743;52.160;20.910;2023-04-03T11:22:03;22.00;23.20
21171;DHT22;10743;52.160;20.910;2023-04-03T11:24:40;22.00;23.20
21171;DHT22;10743;52.160;20.910;2023-04-03T11:27:17;21.90;23.40
21171;DHT22;10743;52.160;20.910;2023-04-03T11:29:49;21.90;23.40
21171;DHT22;10743;52.160;20.910;2023-04-03T11:33:15;21.90;23.20
21171;DHT22;10743;52.160;20.910;2023-04-03T11:35:20;21.80;22.80
21171;DHT22;10743;52.160;20.910;2023-04-03T11:37:51;21.80;23.00
21171;DHT22;10743;52.160;20.910;2023-04-03T11:40:33;21.80;23.40
21171;DHT22;10743;52.160;20.910;2023-04-03T11:43:07;21.70;23.70
21171;DHT22;10743;52.160;20.910;2023-04-03T11:46:03;21.60;23.70
21171;DHT22;10743;52.160;20.910;2023-04-03T11:53:40;21.50;23.50
21171;DHT22;10743;52.160;20.910;2023-04-03T12:04:27;21.30;23.40
21171;DHT22;10743;52.160;20.910;2023-04-03T12:07:14;21.30;23.70
21171;DHT22;10743;52.160;20.910;2023-04-03T12:12:38;21.20;23.80
21171;DHT22;10743;52.160;20.910;2023-04-03T12:15:26;21.20;23.70
21171;DHT22;10743;52.160;20.910;2023-04-03T12:18:41;21.20;23.70
21171;DHT22;10743;52.160;20.910;2023-04-03T12:21:12;21.20;23.60
21171;DHT22;10743;52.160;20.910;2023-04-03T12:24:43;21.20;23.70
21171;DHT22;10743;52.160;20.910;2023-04-03T12:38:25;21.10;23.10
21171;DHT22;10743;52.160;20.910;2023-04-03T12:41:19;21.10;23.40
21171;DHT22;10743;52.160;20.910;2023-04-03T12:46:49;21.00;23.90
21171;DHT22;10743;52.160;20.910;2023-04-03T12:55:03;21.10;23.30
21171;DHT22;10743;52.160;20.910;2023-04-03T12:57:36;21.10;23.50
21171;DHT22;10743;52.160;20.910;2023-04-03T13:00:20;21.10;23.50
21171;DHT22;10743;52.160;20.910;2023-04-03T13:02:47;21.10;23.60
21171;DHT22;10743;52.160;20.910;2023-04-03T13:05:17;21.10;23.80
21171;DHT22;10743;52.160;20.910;2023-04-03T13:07:49;21.20;23.50
21171;DHT22;10743;52.160;20.910;2023-04-03T13:10:21;21.20;23.30
21171;DHT22;10743;52.160;20.910;2023-04-03T13:13:07;21.30;23.30
21171;DHT22;10743;52.160;20.910;2023-04-03T13:15:44;21.30;23.10
21171;DHT22;10743;52.160;20.910;2023-04-03T13:18:28;21.30;23.30
21171;DHT22;10743;52.160;20.910;2023-04-03T13:21:02;21.40;23.40
21171;DHT22;10743;52.160;20.910;2023-04-03T13:23:36;21.40;23.50
21171;DHT22;10743;52.160;20.910;2023-04-03T13:26:06;21.50;23.40
21171;DHT22;10743;52.160;20.910;2023-04-03T13:28:34;21.50;23.40
21171;DHT22;10743;52.160;20.910;2023-04-03T13:34:12;21.60;22.80
21171;DHT22;10743;52.160;20.910;2023-04-03T13:39:26;21.60;22.80
21171;DHT22;10743;52.160;20.910;2023-04-03T13:42:00;21.60;22.80
21171;DHT22;10743;52.160;20.910;2023-04-03T13:44:43;21.60;22.80
21171;DHT22;10743;52.160;20.910;2023-04-03T13:49:58;21.50;22.60
21171;DHT22;10743;52.160;20.910;2023-04-03T13:52:31;21.50;22.70
21171;DHT22;10743;52.160;20.910;2023-04-03T13:55:25;21.50;22.80
21171;DHT22;10743;52.160;20.910;2023-04-03T14:00:47;21.40;22.90
21171;DHT22;10743;52.160;20.910;2023-04-03T14:03:21;21.40;22.60
21171;DHT22;10743;52.160;20.910;2023-04-03T14:05:52;21.30;23.00
21171;DHT22;10743;52.160;20.910;2023-04-03T14:08:20;21.30;23.00
21171;DHT22;10743;52.160;20.910;2023-04-03T14:11:02;21.20;23.20
21171;DHT22;10743;52.160;20.910;2023-04-03T14:13:31;21.20;23.30
21171;DHT22;10743;52.160;20.910;2023-04-03T14:15:58;21.10;23.20
21171;DHT22;10743;52.160;20.910;2023-04-03T14:18:34;21.10;23.10
21171;DHT22;10743;52.160;20.910;2023-04-03T14:21:03;21.10;23.30
21171;DHT22;10743;52.160;20.910;2023-04-03T14:23:30;21.10;23.20
21171;DHT22;10743;52.160;20.910;2023-04-03T14:25:57;21.10;23.30
21171;DHT22;10743;52.160;20.910;2023-04-03T14:28:24;21.10;23.30
21171;DHT22;10743;52.160;20.910;2023-04-03T14:30:52;21.00;23.40
21171;DHT22;10743;52.160;20.910;2023-04-03T14:33:21;21.00;23.30
21171;DHT22;10743;52.160;20.910;2023-04-03T14:35:48;20.90;23.70
21171;DHT22;10743;52.160;20.910;2023-04-03T14:38:28;20.90;23.30
21171;DHT22;10743;52.160;20.910;2023-04-03T14:40:57;21.20;23.30
21171;DHT22;10743;52.160;20.910;2023-04-03T14:43:39;20.90;23.30
21171;DHT22;10743;52.160;20.910;2023-04-03T14:46:34;20.90;23.40
21171;DHT22;10743;52.160;20.910;2023-04-03T14:49:24;20.90;23.50
21171;DHT22;10743;52.160;20.910;2023-04-03T14:51:55;20.80;23.60
21171;DHT22;10743;52.160;20.910;2023-04-03T14:54:24;20.80;23.20
21171;DHT22;10743;52.160;20.910;2023-04-03T14:56:57;20.80;23.30
21171;DHT22;10743;52.160;20.910;2023-04-03T14:59:27;20.80;23.30
21171;DHT22;10743;52.160;20.910;2023-04-03T15:01:54;20.70;23.30
21171;DHT22;10743;52.160;20.910;2023-04-03T15:04:21;20.70;23.30
21171;DHT22;10743;52.160;20.910;2023-04-03T15:06:49;20.70;23.30
21171;DHT22;10743;52.160;20.910;2023-04-03T15:09:25;20.70;23.30
21171;DHT22;10743;52.160;20.910;2023-04-03T15:11:54;20.70;23.50
21171;DHT22;10743;52.160;20.910;2023-04-03T15:14:22;20.60;23.60
21171;DHT22;10743;52.160;20.910;2023-04-03T15:17:08;20.60;23.70
21171;DHT22;10743;52.160;20.910;2023-04-03T15:19:40;20.60;23.80
21171;DHT22;10743;52.160;20.910;2023-04-03T15:22:14;20.80;23.80
21171;DHT22;10743;52.160;20.910;2023-04-03T15:24:42;20.50;23.70
21171;DHT22;10743;52.160;20.910;2023-04-03T15:27:11;20.50;23.70
21171;DHT22;10743;52.160;20.910;2023-04-03T15:29:40;20.50;23.70
21171;DHT22;10743;52.160;20.910;2023-04-03T15:32:08;20.50;23.70
21171;DHT22;10743;52.160;20.910;2023-04-03T15:34:37;20.50;23.40
21171;DHT22;10743;52.160;20.910;2023-04-03T15:37:05;20.50;23.40
21171;DHT22;10743;52.160;20.910;2023-04-03T15:39:32;20.50;23.30
21171;DHT22;10743;52.160;20.910;2023-04-03T15:41:59;20.60;23.30
21171;DHT22;10743;52.160;20.910;2023-04-03T15:44:35;20.70;23.30
21171;DHT22;10743;52.160;20.910;2023-04-03T15:47:03;20.80;23.50
21171;DHT22;10743;52.160;20.910;2023-04-03T15:49:32;20.90;23.60
21171;DHT22;10743;52.160;20.910;2023-04-03T15:52:00;20.90;23.50
21171;DHT22;10743;52.160;20.910;2023-04-03T15:54:27;20.90;23.20
21171;DHT22;10743;52.160;20.910;2023-04-03T15:56:56;20.90;23.10
21171;DHT22;10743;52.160;20.910;2023-04-03T15:59:23;20.80;23.20
21171;DHT22;10743;52.160;20.910;2023-04-03T16:01:51;20.70;22.90
21171;DHT22;10743;52.160;20.910;2023-04-03T16:04:19;20.60;23.20
21171;DHT22;10743;52.160;20.910;2023-04-03T16:06:48;20.50;23.40
21171;DHT22;10743;52.160;20.910;2023-04-03T16:09:16;20.50;23.40
21171;DHT22;10743;52.160;20.910;2023-04-03T16:11:43;20.50;23.50
21171;DHT22;10743;52.160;20.910;2023-04-03T16:14:10;20.40;23.60
21171;DHT22;10743;52.160;20.910;2023-04-03T16:16:38;20.40;23.70
21171;DHT22;10743;52.160;20.910;2023-04-03T16:19:06;20.30;23.70
21171;DHT22;10743;52.160;20.910;2023-04-03T16:21:33;20.20;23.80
21171;DHT22;10743;52.160;20.910;2023-04-03T16:24:01;20.20;23.90
21171;DHT22;10743;52.160;20.910;2023-04-03T16:26:28;20.10;24.00
21171;DHT22;10743;52.160;20.910;2023-04-03T16:28:55;20.10;24.00
21171;DHT22;10743;52.160;20.910;2023-04-03T16:31:24;20.00;24.10
21171;DHT22;10743;52.160;20.910;2023-04-03T16:33:52;20.00;24.00
21171;DHT22;10743;52.160;20.910;2023-04-03T16:36:19;20.00;24.00
21171;DHT22;10743;52.160;20.910;2023-04-03T16:38:46;19.90;24.10
21171;DHT22;10743;52.160;20.910;2023-04-03T16:41:13;19.90;24.20
21171;DHT22;10743;52.160;20.910;2023-04-03T16:43:40;19.90;24.40
21171;DHT22;10743;52.160;20.910;2023-04-03T16:46:12;19.80;24.40
21171;DHT22;10743;52.160;20.910;2023-04-03T16:48:39;19.80;24.30
21171;DHT22;10743;52.160;20.910;2023-04-03T16:51:06;19.80;24.00
21171;DHT22;10743;52.160;20.910;2023-04-03T16:53:33;19.80;24.00
21171;DHT22;10743;52.160;20.910;2023-04-03T16:56:00;19.80;24.20
21171;DHT22;10743;52.160;20.910;2023-04-03T16:58:27;19.80;24.00
21171;DHT22;10743;52.160;20.910;2023-04-03T17:00:54;19.80;24.00
21171;DHT22;10743;52.160;20.910;2023-04-03T17:03:22;19.70;24.00
21171;DHT22;10743;52.160;20.910;2023-04-03T17:05:52;19.60;24.00
21171;DHT22;10743;52.160;20.910;2023-04-03T17:08:19;19.60;24.20
21171;DHT22;10743;52.160;20.910;2023-04-03T17:10:46;19.60;24.30
21171;DHT22;10743;52.160;20.910;2023-04-03T17:13:16;19.50;24.50
21171;DHT22;10743;52.160;20.910;2023-04-03T17:15:43;19.50;24.60
21171;DHT22;10743;52.160;20.910;2023-04-03T17:18:10;19.50;24.50